Time;durP1;ratioP1;P1;durP2;ratioP2;P2;SDS_P1;SDS_P2;PMS_P1;PMS_P2;Temp;Humidity;BMP_temperature;BMP_pressure;BME280_temperature;BME280_humidity;BME280_pressure;Samples;Min_cycle;Max_cycle;Signal;HPM_P1;HPM_P2
2022/04/09 00:22:55;;;;;;;5.60;2.40;;;;;;;;;;4654547;27;20099;-62
2022/04/09 00:25:23;;;;;;;7.62;2.40;;;;;;;;;;4257343;33;20100;-59
2022/04/09 00:27:53;;;;;;;5.53;3.20;;;;;;;;;;4254200;33;22004;-61
2022/04/09 00:30:19;;;;;;;6.28;3.80;;;;;;;;;;4260084;33;20115;-59
2022/04/09 00:32:45;;;;;;;12.48;3.33;;;;;;;;;;4260127;33;20128;-59
2022/04/09 00:35:11;;;;;;;20.67;4.25;;;;;;;;;;4259975;33;20104;-59
2022/04/09 00:37:44;;;;;;;19.25;4.05;;;;;;;;;;4261758;33;20108;-59
2022/04/09 00:40:13;;;;;;;12.98;3.37;;;;;;;;;;4262275;33;20089;-60
2022/04/09 00:42:42;;;;;;;17.10;5.18;;;;;;;;;;4262209;33;20132;-57
2022/04/09 00:45:09;;;;;;;4.35;2.80;;;;;;;;;;4262038;33;20101;-59
2022/04/09 00:47:36;;;;;;;10.35;2.80;;;;;;;;;;4262357;33;20128;-60
2022/04/09 00:50:04;;;;;;;3.15;2.37;;;;;;;;;;4262033;33;20133;-61
2022/04/09 00:52:34;;;;;;;3.87;2.35;;;;;;;;;;4262177;33;20128;-61
2022/04/09 00:55:03;;;;;;;15.80;1.95;;;;;;;;;;4248983;33;20128;-60
2022/04/09 00:57:32;;;;;;;1.42;1.33;;;;;;;;;;4262300;33;20229;-60
2022/04/09 00:59:58;;;;;;;0.90;0.90;;;;;;;;;;4261987;33;20108;-57
2022/04/09 01:02:24;;;;;;;0.82;0.82;;;;;;;;;;4249217;33;20239;-57
2022/04/09 01:04:50;;;;;;;1.00;1.00;;;;;;;;;;4261877;33;20519;-62
2022/04/09 01:07:17;;;;;;;0.90;0.90;;;;;;;;;;4262013;33;20635;-62
2022/04/09 01:09:45;;;;;;;0.90;0.90;;;;;;;;;;4248740;33;20523;-62
2022/04/09 01:12:11;;;;;;;4.82;2.20;;;;;;;;;;4262005;33;20104;-62
2022/04/09 01:14:37;;;;;;;4.35;2.45;;;;;;;;;;4248671;33;20501;-62
2022/04/09 01:17:03;;;;;;;4.20;2.55;;;;;;;;;;4261943;33;20492;-62
2022/04/09 01:19:29;;;;;;;3.60;2.22;;;;;;;;;;4248875;33;20093;-62
2022/04/09 01:22:00;;;;;;;6.10;3.83;;;;;;;;;;4261980;33;20104;-62
2022/04/09 01:24:25;;;;;;;3.53;2.67;;;;;;;;;;4248962;33;20099;-62
2022/04/09 01:26:52;;;;;;;3.45;2.28;;;;;;;;;;4261935;33;20810;-62
2022/04/09 01:29:18;;;;;;;6.12;3.10;;;;;;;;;;4248652;33;20116;-62
2022/04/09 01:31:44;;;;;;;4.62;2.45;;;;;;;;;;4261816;33;20191;-62
2022/04/09 01:34:13;;;;;;;10.77;2.70;;;;;;;;;;4261713;33;20510;-62
2022/04/09 01:36:39;;;;;;;5.22;2.75;;;;;;;;;;4261920;33;20109;-63
2022/04/09 01:39:05;;;;;;;3.65;2.15;;;;;;;;;;4248703;33;20128;-62
2022/04/09 01:41:31;;;;;;;4.22;2.33;;;;;;;;;;4261704;33;20124;-63
2022/04/09 01:43:57;;;;;;;4.18;2.90;;;;;;;;;;4261471;33;20101;-62
2022/04/09 01:46:23;;;;;;;4.32;2.25;;;;;;;;;;4261726;33;20758;-62
2022/04/09 01:48:49;;;;;;;3.03;2.25;;;;;;;;;;4261211;33;20116;-62
2022/04/09 01:51:15;;;;;;;2.78;2.47;;;;;;;;;;4261596;33;20134;-62
2022/04/09 01:53:41;;;;;;;3.62;2.53;;;;;;;;;;4261502;33;20120;-62
2022/04/09 01:56:07;;;;;;;2.97;2.50;;;;;;;;;;4261749;33;20138;-62
2022/04/09 01:58:33;;;;;;;4.07;2.40;;;;;;;;;;4261391;33;20464;-62
2022/04/09 02:00:59;;;;;;;4.53;2.55;;;;;;;;;;4261855;33;20116;-62
2022/04/09 02:03:26;;;;;;;3.25;2.70;;;;;;;;;;4261352;33;20131;-62
2022/04/09 02:05:52;;;;;;;6.10;2.50;;;;;;;;;;4261520;33;20112;-61
2022/04/09 02:08:19;;;;;;;4.82;2.70;;;;;;;;;;4248425;33;20131;-62
2022/04/09 02:10:45;;;;;;;6.37;2.42;;;;;;;;;;4261424;33;20208;-63
2022/04/09 02:13:12;;;;;;;2.90;2.60;;;;;;;;;;4248483;33;20539;-62
2022/04/09 02:15:38;;;;;;;6.85;3.03;;;;;;;;;;4248143;33;20108;-62
2022/04/09 02:18:04;;;;;;;5.62;3.22;;;;;;;;;;4261664;33;20180;-62
2022/04/09 02:20:30;;;;;;;4.28;3.00;;;;;;;;;;4261363;33;20211;-62
2022/04/09 02:22:56;;;;;;;4.72;3.00;;;;;;;;;;4261429;33;20578;-63
2022/04/09 02:25:22;;;;;;;6.93;3.60;;;;;;;;;;4261214;33;20205;-62
2022/04/09 02:27:48;;;;;;;5.30;3.62;;;;;;;;;;4261418;33;20552;-62
2022/04/09 02:30:15;;;;;;;7.12;3.08;;;;;;;;;;4261431;33;20202;-62
2022/04/09 02:32:52;;;;;;;7.00;3.08;;;;;;;;;;4261334;33;20119;-61
2022/04/09 02:35:19;;;;;;;5.65;2.72;;;;;;;;;;4261422;33;20103;-62
2022/04/09 02:37:45;;;;;;;5.47;3.20;;;;;;;;;;4261151;33;20128;-63
2022/04/09 02:40:12;;;;;;;5.03;3.00;;;;;;;;;;4261111;33;20124;-61
2022/04/09 02:42:39;;;;;;;2.05;1.23;;;;;;;;;;4247653;33;20545;-61
2022/04/09 02:45:08;;;;;;;2.95;1.75;;;;;;;;;;4261275;33;20183;-59
2022/04/09 02:47:34;;;;;;;1.12;1.12;;;;;;;;;;4261392;33;20122;-59
2022/04/09 02:50:01;;;;;;;0.82;0.82;;;;;;;;;;4261003;33;20116;-59
2022/04/09 02:52:32;;;;;;;1.00;1.00;;;;;;;;;;4261279;33;20225;-59
2022/04/09 02:54:58;;;;;;;3.28;2.65;;;;;;;;;;4261007;33;20121;-60
2022/04/09 02:57:24;;;;;;;4.97;2.90;;;;;;;;;;4261353;33;20588;-60
2022/04/09 02:59:50;;;;;;;6.55;2.85;;;;;;;;;;4260413;33;20444;-59
2022/04/09 03:02:16;;;;;;;5.32;3.00;;;;;;;;;;4260929;33;20838;-59
2022/04/09 03:04:43;;;;;;;6.07;2.78;;;;;;;;;;4261163;33;20583;-60
2022/04/09 03:07:09;;;;;;;4.07;2.67;;;;;;;;;;4260904;33;20128;-60
2022/04/09 03:09:34;;;;;;;4.78;2.67;;;;;;;;;;4260857;33;20146;-60
2022/04/09 03:12:00;;;;;;;11.40;2.92;;;;;;;;;;4260919;33;20122;-61
2022/04/09 03:14:26;;;;;;;5.03;2.67;;;;;;;;;;4260806;33;20140;-57
2022/04/09 03:16:52;;;;;;;10.68;3.05;;;;;;;;;;4260709;33;20108;-59
2022/04/09 03:19:18;;;;;;;13.38;3.28;;;;;;;;;;4260779;33;20590;-59
2022/04/09 03:21:44;;;;;;;11.23;3.12;;;;;;;;;;4260758;33;20115;-59
2022/04/09 03:24:10;;;;;;;11.88;3.12;;;;;;;;;;4260791;33;20219;-60
2022/04/09 03:26:36;;;;;;;5.43;2.80;;;;;;;;;;4260561;33;20460;-58
2022/04/09 03:29:03;;;;;;;6.20;2.95;;;;;;;;;;4260768;33;20120;-60
2022/04/09 03:31:29;;;;;;;5.87;3.17;;;;;;;;;;4260693;33;20168;-60
2022/04/09 03:33:56;;;;;;;5.82;3.03;;;;;;;;;;4260807;33;20103;-60
2022/04/09 03:36:22;;;;;;;4.12;2.75;;;;;;;;;;4260619;33;20144;-60
2022/04/09 03:38:48;;;;;;;9.00;3.37;;;;;;;;;;4260552;33;20111;-58
2022/04/09 03:41:14;;;;;;;6.87;3.35;;;;;;;;;;4260494;33;20112;-60
2022/04/09 03:43:40;;;;;;;4.60;2.90;;;;;;;;;;4260470;33;20118;-59
2022/04/09 03:46:06;;;;;;;8.98;3.20;;;;;;;;;;4260499;33;20194;-59
2022/04/09 03:48:32;;;;;;;10.18;2.90;;;;;;;;;;4260425;33;20187;-59
2022/04/09 03:50:58;;;;;;;5.97;2.90;;;;;;;;;;4260525;33;20179;-59
2022/04/09 03:53:24;;;;;;;4.28;2.85;;;;;;;;;;4247484;33;20199;-59
2022/04/09 03:55:50;;;;;;;4.37;3.28;;;;;;;;;;4260319;33;20128;-59
2022/04/09 03:58:17;;;;;;;4.18;2.62;;;;;;;;;;4260631;33;20142;-60
2022/04/09 04:00:45;;;;;;;10.30;2.90;;;;;;;;;;4260403;33;20106;-61
2022/04/09 04:03:11;;;;;;;4.97;3.10;;;;;;;;;;4260473;33;20111;-61
2022/04/09 04:05:38;;;;;;;9.43;3.45;;;;;;;;;;4260317;33;20541;-60
2022/04/09 04:08:05;;;;;;;5.20;3.17;;;;;;;;;;4260428;33;20212;-60
2022/04/09 04:10:32;;;;;;;6.03;2.97;;;;;;;;;;4247047;33;20119;-60
2022/04/09 04:12:58;;;;;;;4.95;3.75;;;;;;;;;;4247394;33;20100;-60
2022/04/09 04:15:24;;;;;;;19.73;4.15;;;;;;;;;;4260091;33;20532;-60
2022/04/09 04:17:50;;;;;;;7.90;3.22;;;;;;;;;;4259316;33;20223;-60
2022/04/09 04:20:16;;;;;;;10.05;3.37;;;;;;;;;;4259691;33;20124;-60
2022/04/09 04:22:42;;;;;;;13.13;3.45;;;;;;;;;;4260151;33;20127;-60
2022/04/09 04:25:09;;;;;;;6.95;3.00;;;;;;;;;;4259480;33;20196;-59
2022/04/09 04:27:42;;;;;;;4.47;2.67;;;;;;;;;;4260062;33;20104;-60
2022/04/09 04:30:08;;;;;;;6.60;3.22;;;;;;;;;;4259988;33;20164;-60
2022/04/09 04:32:34;;;;;;;5.03;2.50;;;;;;;;;;4247152;33;20193;-60
2022/04/09 04:35:01;;;;;;;6.07;3.17;;;;;;;;;;4259849;33;20141;-60
2022/04/09 04:37:39;;;;;;;8.43;3.50;;;;;;;;;;4260336;33;20127;-60
2022/04/09 04:40:06;;;;;;;12.95;3.78;;;;;;;;;;4259963;33;20107;-59
2022/04/09 04:42:32;;;;;;;13.77;2.70;;;;;;;;;;4243075;33;20101;-60
2022/04/09 04:44:58;;;;;;;8.48;3.37;;;;;;;;;;4245207;33;20093;-62
2022/04/09 04:47:24;;;;;;;8.88;3.65;;;;;;;;;;4267681;33;20522;-61
2022/04/09 04:49:50;;;;;;;11.65;3.22;;;;;;;;;;4269435;33;20100;-60
2022/04/09 04:52:16;;;;;;;9.60;3.30;;;;;;;;;;4267831;33;20143;-62
2022/04/09 04:54:42;;;;;;;10.25;4.43;;;;;;;;;;4259448;33;20479;-60
2022/04/09 04:57:08;;;;;;;6.93;3.12;;;;;;;;;;4266172;33;20220;-60
2022/04/09 04:59:34;;;;;;;10.75;3.42;;;;;;;;;;4274209;33;20116;-62
2022/04/09 05:02:00;;;;;;;10.20;2.80;;;;;;;;;;4273794;33;20303;-60
2022/04/09 05:04:26;;;;;;;7.90;3.47;;;;;;;;;;4271349;33;20444;-60
2022/04/09 05:06:52;;;;;;;14.18;3.33;;;;;;;;;;4264491;33;20288;-59
2022/04/09 05:09:19;;;;;;;11.12;3.60;;;;;;;;;;4263034;33;20159;-59
2022/04/09 05:11:45;;;;;;;6.55;3.90;;;;;;;;;;4257598;33;20629;-61
2022/04/09 05:14:11;;;;;;;9.23;3.60;;;;;;;;;;4247484;33;20125;-60
2022/04/09 05:16:38;;;;;;;8.55;3.40;;;;;;;;;;4257863;33;20116;-61
2022/04/09 05:19:04;;;;;;;8.15;3.12;;;;;;;;;;4259050;33;20119;-60
2022/04/09 05:21:30;;;;;;;8.05;3.30;;;;;;;;;;4259956;33;20218;-60
2022/04/09 05:23:56;;;;;;;8.95;3.95;;;;;;;;;;4255332;33;20551;-60
2022/04/09 05:26:22;;;;;;;11.98;3.50;;;;;;;;;;4263634;33;20136;-60
2022/04/09 05:28:53;;;;;;;18.95;3.70;;;;;;;;;;4250867;33;20123;-60
2022/04/09 05:31:27;;;;;;;12.13;4.72;;;;;;;;;;4263165;33;20093;-61
2022/04/09 05:33:54;;;;;;;12.70;3.73;;;;;;;;;;4275852;33;20218;-61
2022/04/09 05:36:20;;;;;;;1.62;1.37;;;;;;;;;;4275673;33;20199;-60
2022/04/09 05:38:46;;;;;;;7.05;2.00;;;;;;;;;;4275801;33;20128;-61
2022/04/09 05:41:12;;;;;;;2.72;2.00;;;;;;;;;;4275933;33;20107;-61
2022/04/09 05:43:39;;;;;;;4.10;2.08;;;;;;;;;;4276128;33;20127;-61
2022/04/09 05:46:05;;;;;;;0.88;0.88;;;;;;;;;;4262886;33;20128;-61
2022/04/09 05:48:32;;;;;;;11.88;3.35;;;;;;;;;;4276083;33;20595;-61
2022/04/09 05:50:58;;;;;;;12.68;3.80;;;;;;;;;;4276005;33;20566;-61
2022/04/09 05:53:24;;;;;;;14.55;3.67;;;;;;;;;;4275975;33;20108;-61
2022/04/09 05:55:50;;;;;;;9.50;3.37;;;;;;;;;;4276049;33;20139;-61
2022/04/09 05:58:16;;;;;;;4.78;1.50;;;;;;;;;;4276069;33;20138;-60
2022/04/09 06:00:42;;;;;;;1.30;1.20;;;;;;;;;;4259570;33;20120;-61
2022/04/09 06:03:08;;;;;;;5.10;1.35;;;;;;;;;;4261844;33;20109;-60
2022/04/09 06:05:34;;;;;;;2.85;1.55;;;;;;;;;;4261473;33;20096;-60
2022/04/09 06:08:00;;;;;;;5.30;2.37;;;;;;;;;;4261558;33;20120;-62
2022/04/09 06:10:26;;;;;;;7.03;1.10;;;;;;;;;;4248107;33;20377;-60
2022/04/09 06:12:52;;;;;;;4.78;1.83;;;;;;;;;;4261548;33;20093;-63
2022/04/09 06:15:18;;;;;;;1.05;1.05;;;;;;;;;;4261416;33;20100;-63
2022/04/09 06:17:45;;;;;;;1.40;1.30;;;;;;;;;;4261290;33;20108;-62
2022/04/09 06:20:11;;;;;;;3.22;1.12;;;;;;;;;;4261302;33;20134;-61
2022/04/09 06:22:37;;;;;;;1.52;1.42;;;;;;;;;;4248129;33;20097;-59
2022/04/09 06:25:04;;;;;;;1.50;1.40;;;;;;;;;;4261190;33;20127;-61
2022/04/09 06:27:31;;;;;;;2.60;1.40;;;;;;;;;;4261327;33;20160;-58
2022/04/09 06:29:57;;;;;;;1.50;1.40;;;;;;;;;;4267502;33;20089;-59
2022/04/09 06:32:23;;;;;;;1.05;1.05;;;;;;;;;;4265545;33;20187;-59
2022/04/09 06:34:49;;;;;;;8.70;1.65;;;;;;;;;;4274445;33;20212;-59
2022/04/09 06:37:15;;;;;;;1.42;1.33;;;;;;;;;;4274857;33;20122;-59
2022/04/09 06:39:41;;;;;;;5.50;2.45;;;;;;;;;;4275321;33;20552;-58
2022/04/09 06:42:07;;;;;;;0.90;0.90;;;;;;;;;;4275179;33;20519;-58
2022/04/09 06:44:33;;;;;;;0.90;0.90;;;;;;;;;;4275139;33;20105;-58
2022/04/09 06:46:59;;;;;;;2.00;1.30;;;;;;;;;;4275135;33;20246;-59
2022/04/09 06:49:25;;;;;;;1.30;1.20;;;;;;;;;;4274902;33;20119;-59
2022/04/09 06:51:51;;;;;;;5.03;2.25;;;;;;;;;;4274865;33;20174;-58
2022/04/09 06:54:18;;;;;;;1.48;1.37;;;;;;;;;;4274890;33;20124;-59
2022/04/09 06:56:44;;;;;;;1.35;1.25;;;;;;;;;;4266917;33;20488;-59
2022/04/09 06:59:10;;;;;;;6.95;1.85;;;;;;;;;;4268840;33;20107;-60
2022/04/09 07:01:36;;;;;;;0.90;0.90;;;;;;;;;;4270539;33;20112;-60
2022/04/09 07:04:03;;;;;;;0.95;0.95;;;;;;;;;;4266879;33;20187;-59
2022/04/09 07:06:30;;;;;;;2.10;0.98;;;;;;;;;;4246112;33;20112;-61
2022/04/09 07:08:56;;;;;;;5.00;3.05;;;;;;;;;;4259621;33;20105;-60
2022/04/09 07:11:23;;;;;;;2.78;1.75;;;;;;;;;;4274928;33;20142;-59
2022/04/09 07:13:49;;;;;;;1.40;1.30;;;;;;;;;;4274461;33;20218;-59
2022/04/09 07:16:15;;;;;;;1.65;1.50;;;;;;;;;;4262046;33;20132;-59
2022/04/09 07:18:40;;;;;;;14.07;3.22;;;;;;;;;;4265503;33;20195;-59
2022/04/09 07:21:06;;;;;;;9.90;2.60;;;;;;;;;;4271343;33;20207;-57
2022/04/09 07:23:33;;;;;;;1.48;1.37;;;;;;;;;;4259924;33;20134;-58
2022/04/09 07:25:59;;;;;;;4.68;2.25;;;;;;;;;;4259042;33;20108;-58
2022/04/09 07:28:25;;;;;;;3.42;1.33;;;;;;;;;;4260470;33;20231;-58
2022/04/09 07:30:51;;;;;;;2.97;2.28;;;;;;;;;;4259818;33;20187;-58
2022/04/09 07:33:17;;;;;;;1.50;1.40;;;;;;;;;;4260197;33;20132;-57
2022/04/09 07:35:43;;;;;;;2.60;1.73;;;;;;;;;;4257592;33;20592;-57
2022/04/09 07:38:09;;;;;;;2.42;1.62;;;;;;;;;;4260175;33;20115;-57
2022/04/09 07:40:36;;;;;;;10.13;3.05;;;;;;;;;;4259082;33;20191;-58
2022/04/09 07:43:02;;;;;;;23.45;5.57;;;;;;;;;;4260653;33;20112;-58
2022/04/09 07:45:28;;;;;;;21.37;4.85;;;;;;;;;;4274297;33;20127;-58
2022/04/09 07:47:56;;;;;;;9.65;3.35;;;;;;;;;;4274455;33;20610;-58
2022/04/09 07:50:22;;;;;;;10.93;4.37;;;;;;;;;;4269383;33;20463;-58
2022/04/09 07:52:48;;;;;;;9.05;3.95;;;;;;;;;;4259132;33;20127;-58
2022/04/09 07:55:16;;;;;;;16.67;3.85;;;;;;;;;;4259318;33;20691;-58
2022/04/09 07:57:46;;;;;;;19.85;5.07;;;;;;;;;;4258375;33;20479;-58
2022/04/09 08:00:14;;;;;;;2.83;2.30;;;;;;;;;;4258724;33;20108;-58
2022/04/09 08:02:40;;;;;;;6.93;1.48;;;;;;;;;;4246586;33;20418;-60
2022/04/09 08:05:06;;;;;;;1.02;1.02;;;;;;;;;;4260534;33;20183;-61
2022/04/09 08:07:32;;;;;;;2.42;1.92;;;;;;;;;;4259953;33;20151;-62
2022/04/09 08:09:58;;;;;;;5.05;2.47;;;;;;;;;;4245804;33;20128;-62
2022/04/09 08:12:24;;;;;;;1.67;1.45;;;;;;;;;;4260351;33;20135;-62
2022/04/09 08:14:50;;;;;;;1.83;1.70;;;;;;;;;;4260288;33;20118;-62
2022/04/09 08:17:20;;;;;;;15.90;3.17;;;;;;;;;;4260457;33;20132;-62
2022/04/09 08:19:47;;;;;;;15.05;2.83;;;;;;;;;;4260295;33;20207;-61
2022/04/09 08:22:13;;;;;;;9.95;2.53;;;;;;;;;;4260086;33;20215;-62
2022/04/09 08:24:41;;;;;;;20.15;3.20;;;;;;;;;;4260280;33;20128;-62
2022/04/09 08:27:10;;;;;;;8.02;1.98;;;;;;;;;;4260253;33;20092;-62
2022/04/09 08:29:37;;;;;;;16.52;2.45;;;;;;;;;;4260200;33;20120;-62
2022/04/09 08:32:06;;;;;;;8.57;2.78;;;;;;;;;;4260092;33;20108;-63
2022/04/09 08:34:35;;;;;;;10.82;4.12;;;;;;;;;;4260096;33;20132;-61
2022/04/09 08:37:02;;;;;;;10.63;2.90;;;;;;;;;;4259976;33;20643;-63
2022/04/09 08:39:28;;;;;;;14.43;2.87;;;;;;;;;;4260176;33;20100;-61
2022/04/09 08:41:55;;;;;;;6.97;2.75;;;;;;;;;;4259998;33;20112;-61
2022/04/09 08:44:24;;;;;;;2.62;1.85;;;;;;;;;;4260030;33;20128;-62
2022/04/09 08:46:51;;;;;;;4.97;1.62;;;;;;;;;;4260055;33;20115;-62
2022/04/09 08:49:17;;;;;;;8.90;4.47;;;;;;;;;;4260036;33;20523;-62
2022/04/09 08:51:43;;;;;;;12.77;2.22;;;;;;;;;;4235263;33;20112;-61
2022/04/09 08:54:09;;;;;;;14.40;3.50;;;;;;;;;;4259871;33;20199;-62
2022/04/09 08:56:36;;;;;;;4.85;2.95;;;;;;;;;;4246590;33;20120;-62
2022/04/09 08:59:03;;;;;;;12.25;5.00;;;;;;;;;;4261789;33;20536;-60
2022/04/09 09:01:30;;;;;;;14.57;3.80;;;;;;;;;;4262109;33;20198;-60
2022/04/09 09:03:57;;;;;;;5.53;2.97;;;;;;;;;;4249031;33;20127;-61
2022/04/09 09:06:31;;;;;;;2.55;1.42;;;;;;;;;;4261942;33;20457;-63
2022/04/09 09:08:58;;;;;;;3.53;2.33;;;;;;;;;;4262231;33;20112;-61
2022/04/09 09:11:29;;;;;;;1.55;1.45;;;;;;;;;;4261992;33;20505;-61
2022/04/09 09:13:57;;;;;;;2.80;1.90;;;;;;;;;;4261943;33;20511;-61
2022/04/09 09:16:26;;;;;;;5.10;1.80;;;;;;;;;;4261797;33;20087;-61
2022/04/09 09:18:55;;;;;;;5.40;3.53;;;;;;;;;;4261830;33;20093;-61
2022/04/09 09:21:26;;;;;;;9.95;3.10;;;;;;;;;;4261915;33;20107;-61
2022/04/09 09:23:53;;;;;;;9.07;3.60;;;;;;;;;;4261768;33;20212;-61
2022/04/09 09:26:26;;;;;;;3.65;2.35;;;;;;;;;;4261882;33;20508;-62
2022/04/09 09:28:56;;;;;;;13.35;3.67;;;;;;;;;;4262022;33;20128;-64
2022/04/09 09:31:43;;;;;;;6.60;3.42;;;;;;;;;;4261788;33;20220;-60
2022/04/09 09:34:16;;;;;;;9.90;4.65;;;;;;;;;;4261630;33;20112;-62
2022/04/09 09:36:46;;;;;;;3.67;2.60;;;;;;;;;;4261643;33;20219;-60
2022/04/09 09:39:14;;;;;;;5.97;3.37;;;;;;;;;;4261693;33;20175;-61
2022/04/09 09:42:04;;;;;;;10.18;3.95;;;;;;;;;;4261948;33;20089;-62
2022/04/09 09:44:31;;;;;;;3.60;2.25;;;;;;;;;;4261988;33;20120;-59
2022/04/09 09:47:12;;;;;;;5.37;4.50;;;;;;;;;;4261612;33;20496;-60
2022/04/09 09:49:53;;;;;;;1.98;1.87;;;;;;;;;;4261750;33;20099;-64
2022/04/09 09:52:35;;;;;;;1.83;1.60;;;;;;;;;;4261679;33;20659;-63
2022/04/09 09:55:02;;;;;;;1.75;1.37;;;;;;;;;;4261735;33;20085;-62
2022/04/09 09:57:30;;;;;;;1.60;1.50;;;;;;;;;;4261676;33;20124;-63
2022/04/09 10:00:02;;;;;;;3.50;1.37;;;;;;;;;;4261888;33;20108;-61
2022/04/09 10:02:28;;;;;;;1.95;1.77;;;;;;;;;;4261866;33;20140;-61
2022/04/09 10:04:54;;;;;;;1.83;1.60;;;;;;;;;;4261816;33;20123;-61
2022/04/09 10:07:22;;;;;;;1.83;1.62;;;;;;;;;;4261449;33;20210;-61
2022/04/09 10:09:49;;;;;;;1.48;1.37;;;;;;;;;;4261207;33;20103;-60
2022/04/09 10:12:20;;;;;;;5.55;2.40;;;;;;;;;;4261329;33;20124;-61
2022/04/09 10:14:57;;;;;;;6.18;4.32;;;;;;;;;;4261453;33;20095;-61
2022/04/09 10:17:24;;;;;;;7.20;4.25;;;;;;;;;;4261382;33;20206;-61
2022/04/09 10:19:58;;;;;;;9.32;3.95;;;;;;;;;;4261433;33;20186;-59
2022/04/09 10:22:26;;;;;;;5.75;3.78;;;;;;;;;;4261309;33;20465;-60
2022/04/09 10:24:54;;;;;;;4.93;3.65;;;;;;;;;;4261418;33;20176;-60
2022/04/09 10:27:35;;;;;;;5.45;3.70;;;;;;;;;;4248498;33;20128;-60
2022/04/09 10:30:04;;;;;;;8.15;4.10;;;;;;;;;;4248335;33;20176;-59
2022/04/09 10:32:43;;;;;;;6.20;3.80;;;;;;;;;;4261521;33;20116;-60
2022/04/09 10:35:40;;;;;;;6.28;3.60;;;;;;;;;;4261329;33;20091;-61
2022/04/09 10:38:16;;;;;;;6.70;3.60;;;;;;;;;;4261166;33;20128;-58
2022/04/09 10:40:52;;;;;;;4.93;3.72;;;;;;;;;;4261245;33;20187;-59
2022/04/09 10:43:21;;;;;;;8.13;4.28;;;;;;;;;;4261500;33;20533;-59
2022/04/09 10:46:06;;;;;;;6.62;4.22;;;;;;;;;;4261243;33;20120;-60
2022/04/09 10:48:36;;;;;;;6.27;4.50;;;;;;;;;;4261159;33;20092;-59
2022/04/09 10:51:07;;;;;;;9.15;3.85;;;;;;;;;;4261432;33;20176;-58
2022/04/09 10:53:34;;;;;;;6.95;3.65;;;;;;;;;;4261127;33;20222;-59
2022/04/09 10:56:17;;;;;;;6.90;3.90;;;;;;;;;;4248355;33;20187;-57
2022/04/09 10:59:12;;;;;;;5.50;3.58;;;;;;;;;;4261047;33;20187;-60
2022/04/09 11:01:47;;;;;;;6.77;3.97;;;;;;;;;;4261246;33;20121;-59
2022/04/09 11:07:13;;;;;;;6.50;4.00;;;;;;;;;;4261268;33;20199;-58
2022/04/09 11:10:08;;;;;;;6.62;4.15;;;;;;;;;;4261117;33;20116;-58
2022/04/09 11:12:40;;;;;;;5.45;4.00;;;;;;;;;;4254660;33;20100;-59
2022/04/09 11:15:09;;;;;;;9.63;5.68;;;;;;;;;;4261199;33;20450;-59
2022/04/09 11:17:45;;;;;;;4.53;3.72;;;;;;;;;;4260887;33;20120;-59
2022/04/09 11:20:14;;;;;;;7.28;4.30;;;;;;;;;;4247013;33;20214;-58
2022/04/09 11:22:54;;;;;;;6.70;4.82;;;;;;;;;;4260957;33;20124;-58
2022/04/09 11:25:25;;;;;;;10.57;4.78;;;;;;;;;;4249305;33;20097;-59
2022/04/09 11:27:52;;;;;;;7.53;4.78;;;;;;;;;;4260733;33;20552;-60
2022/04/09 11:30:20;;;;;;;7.32;4.68;;;;;;;;;;4260799;33;20114;-60
2022/04/09 11:32:46;;;;;;;3.95;3.22;;;;;;;;;;4261091;33;20119;-62
2022/04/09 11:35:12;;;;;;;6.65;3.37;;;;;;;;;;4260757;33;20127;-61
2022/04/09 11:37:40;;;;;;;8.63;4.65;;;;;;;;;;4260621;33;20555;-61
2022/04/09 11:40:09;;;;;;;6.28;3.80;;;;;;;;;;4260720;33;20120;-62
2022/04/09 11:42:55;;;;;;;6.90;4.25;;;;;;;;;;4260754;33;20535;-62
2022/04/09 11:45:23;;;;;;;9.10;4.65;;;;;;;;;;4260811;33;20128;-62
2022/04/09 11:47:51;;;;;;;15.43;5.80;;;;;;;;;;4260653;33;20136;-62
2022/04/09 11:50:18;;;;;;;9.75;4.47;;;;;;;;;;4247529;33;20107;-62
2022/04/09 11:52:44;;;;;;;7.78;3.70;;;;;;;;;;4260741;33;20147;-62
2022/04/09 11:55:11;;;;;;;6.12;4.18;;;;;;;;;;4260891;33;20166;-62
2022/04/09 11:57:38;;;;;;;8.90;5.03;;;;;;;;;;4260541;33;20112;-62
2022/04/09 12:00:06;;;;;;;9.93;4.37;;;;;;;;;;4260651;33;20116;-62
2022/04/09 12:02:32;;;;;;;4.62;3.60;;;;;;;;;;4260720;33;20551;-64
2022/04/09 12:04:59;;;;;;;8.32;4.07;;;;;;;;;;4260564;33;20139;-61
2022/04/09 12:07:28;;;;;;;6.40;4.18;;;;;;;;;;4260605;33;20105;-65
2022/04/09 12:09:54;;;;;;;8.43;4.62;;;;;;;;;;4247073;33;20552;-59
2022/04/09 12:12:20;;;;;;;9.75;5.85;;;;;;;;;;4260342;33;20111;-59
2022/04/09 12:14:54;;;;;;;6.57;4.10;;;;;;;;;;4247214;33;20108;-59
2022/04/09 12:17:23;;;;;;;7.20;4.05;;;;;;;;;;4260102;33;20108;-58
2022/04/09 12:19:50;;;;;;;4.85;4.18;;;;;;;;;;4260568;33;20175;-60
2022/04/09 12:22:22;;;;;;;8.10;4.65;;;;;;;;;;4247283;33;20445;-67
2022/04/09 12:24:54;;;;;;;8.02;4.68;;;;;;;;;;4260208;33;20128;-61
2022/04/09 12:27:22;;;;;;;5.93;4.20;;;;;;;;;;4260118;33;20216;-59
2022/04/09 12:29:53;;;;;;;5.65;4.12;;;;;;;;;;4247076;33;20481;-59
2022/04/09 12:32:24;;;;;;;8.65;4.25;;;;;;;;;;4261369;33;20492;-59
2022/04/09 12:34:55;;;;;;;5.03;3.65;;;;;;;;;;4262254;33;20524;-62
2022/04/09 12:37:21;;;;;;;5.37;3.67;;;;;;;;;;4262269;33;20132;-58
2022/04/09 12:39:47;;;;;;;8.68;4.85;;;;;;;;;;4248828;33;20097;-58
2022/04/09 12:42:15;;;;;;;7.03;3.75;;;;;;;;;;4249165;33;20112;-59
2022/04/09 12:44:43;;;;;;;5.55;4.12;;;;;;;;;;4249124;33;20136;-59
2022/04/09 12:47:09;;;;;;;10.52;4.30;;;;;;;;;;4262496;33;20116;-59
2022/04/09 12:49:39;;;;;;;8.82;4.70;;;;;;;;;;4262212;33;20679;-59
2022/04/09 12:52:07;;;;;;;10.23;4.72;;;;;;;;;;4248967;33;20100;-59
2022/04/09 12:54:33;;;;;;;8.15;5.05;;;;;;;;;;4249219;33;20111;-60
2022/04/09 12:57:06;;;;;;;6.57;5.07;;;;;;;;;;4248983;33;20209;-60
2022/04/09 12:59:32;;;;;;;7.95;6.07;;;;;;;;;;4262350;33;20120;-60
2022/04/09 13:01:58;;;;;;;8.98;6.28;;;;;;;;;;4262251;33;20130;-60
2022/04/09 13:04:25;;;;;;;11.82;7.57;;;;;;;;;;4262272;33;20100;-59
2022/04/09 13:06:51;;;;;;;15.00;7.32;;;;;;;;;;4262257;33;20116;-59
2022/04/09 13:09:16;;;;;;;12.00;6.47;;;;;;;;;;4261034;33;20135;-59
2022/04/09 13:11:42;;;;;;;9.00;5.47;;;;;;;;;;4259942;33;20125;-59
2022/04/09 13:14:08;;;;;;;7.90;5.62;;;;;;;;;;4260195;33;20138;-61
2022/04/09 13:16:34;;;;;;;10.90;6.45;;;;;;;;;;4260014;33;20136;-59
2022/04/09 13:19:00;;;;;;;9.60;7.05;;;;;;;;;;4246741;33;20878;-59
2022/04/09 13:21:26;;;;;;;9.73;6.80;;;;;;;;;;4260143;33;20132;-59
2022/04/09 13:23:52;;;;;;;8.02;6.03;;;;;;;;;;4247715;33;20108;-59
2022/04/09 13:26:18;;;;;;;12.25;7.03;;;;;;;;;;4261917;33;20195;-59
2022/04/09 13:28:44;;;;;;;11.57;5.03;;;;;;;;;;4261827;33;20203;-59
2022/04/09 13:31:10;;;;;;;9.50;5.22;;;;;;;;;;4261893;33;20119;-60
2022/04/09 13:33:36;;;;;;;7.28;4.90;;;;;;;;;;4248636;33;20111;-60
2022/04/09 13:36:02;;;;;;;10.02;5.22;;;;;;;;;;4261957;33;20613;-61
2022/04/09 13:38:28;;;;;;;9.85;5.50;;;;;;;;;;4261986;33;20109;-59
2022/04/09 13:40:54;;;;;;;8.02;5.72;;;;;;;;;;4248786;33;20543;-59
2022/04/09 13:43:20;;;;;;;8.55;5.95;;;;;;;;;;4248277;33;20206;-60
2022/04/09 13:45:46;;;;;;;8.20;5.80;;;;;;;;;;4261670;33;20113;-59
2022/04/09 13:48:12;;;;;;;12.93;6.72;;;;;;;;;;4261807;33;20171;-75
2022/04/09 13:50:38;;;;;;;10.18;7.15;;;;;;;;;;4248506;33;20131;-61
2022/04/09 13:53:04;;;;;;;21.15;8.10;;;;;;;;;;4261784;33;20192;-59
2022/04/09 13:55:30;;;;;;;15.70;7.37;;;;;;;;;;4248620;33;20105;-60
2022/04/09 13:57:56;;;;;;;16.35;7.60;;;;;;;;;;4261644;33;20139;-59
2022/04/09 14:00:22;;;;;;;16.67;8.02;;;;;;;;;;4261784;33;20212;-60
2022/04/09 14:02:49;;;;;;;23.27;9.50;;;;;;;;;;4261527;33;20207;-61
2022/04/09 14:05:15;;;;;;;25.65;9.38;;;;;;;;;;4261673;33;20123;-61
2022/04/09 14:07:41;;;;;;;30.73;9.75;;;;;;;;;;4261620;33;20104;-59
2022/04/09 14:10:08;;;;;;;30.75;9.77;;;;;;;;;;4261437;33;20111;-62
2022/04/09 14:12:35;;;;;;;24.87;9.48;;;;;;;;;;4261570;33;20595;-60
2022/04/09 14:15:01;;;;;;;17.75;7.70;;;;;;;;;;4248471;33;20124;-60
2022/04/09 14:17:27;;;;;;;23.85;6.68;;;;;;;;;;4261319;33;20130;-60
2022/04/09 14:19:53;;;;;;;25.45;8.23;;;;;;;;;;4261359;33;20105;-60
2022/04/09 14:22:20;;;;;;;24.63;7.05;;;;;;;;;;4248466;33;20140;-60
2022/04/09 14:24:46;;;;;;;17.17;7.12;;;;;;;;;;4236286;33;20543;-59
2022/04/09 14:27:12;;;;;;;20.67;7.60;;;;;;;;;;4248274;33;20119;-60
2022/04/09 14:29:38;;;;;;;21.87;7.72;;;;;;;;;;4261220;33;20099;-60
2022/04/09 14:32:05;;;;;;;14.20;5.97;;;;;;;;;;4261250;33;20204;-59
2022/04/09 14:34:31;;;;;;;12.50;5.50;;;;;;;;;;4248073;33;20508;-61
2022/04/09 14:36:57;;;;;;;8.48;5.65;;;;;;;;;;4261178;33;20263;-59
2022/04/09 14:39:23;;;;;;;11.52;5.72;;;;;;;;;;4261357;33;20156;-59
2022/04/09 14:41:49;;;;;;;11.30;5.47;;;;;;;;;;4261272;33;20949;-60
2022/04/09 14:44:15;;;;;;;7.95;5.72;;;;;;;;;;4248122;33;20116;-60
2022/04/09 14:46:41;;;;;;;7.18;5.85;;;;;;;;;;4247917;33;20111;-59
2022/04/09 14:49:07;;;;;;;9.23;5.55;;;;;;;;;;4261085;33;20135;-60
2022/04/09 14:51:33;;;;;;;9.82;6.43;;;;;;;;;;4261184;33;20257;-61
2022/04/09 14:53:59;;;;;;;8.13;6.60;;;;;;;;;;4261041;33;20203;-61
2022/04/09 14:56:26;;;;;;;8.60;6.50;;;;;;;;;;4246915;33;20187;-60
2022/04/09 14:58:58;;;;;;;13.32;5.85;;;;;;;;;;4261006;33;20596;-60
2022/04/09 15:01:27;;;;;;;9.88;5.65;;;;;;;;;;4261085;33;20580;-60
2022/04/09 15:03:57;;;;;;;10.02;5.32;;;;;;;;;;4260873;33;20482;-60
2022/04/09 15:06:24;;;;;;;8.15;4.90;;;;;;;;;;4260850;33;20492;-60
2022/04/09 15:08:51;;;;;;;8.20;5.20;;;;;;;;;;4260869;33;20210;-60